Time;durP1;ratioP1;P1;durP2;ratioP2;P2;SDS_P1;SDS_P2;PMS_P1;PMS_P2;Temp;Humidity;BMP_temperature;BMP_pressure;BME280_temperature;BME280_humidity;BME280_pressure;Samples;Min_cycle;Max_cycle;Signal;HPM_P1;HPM_P2
2023/09/08 00:00:57;;;;;;;13.23;5.97;;;19.40;99.90;;;20.40;62.11;100753.91;6187518;23;20078;-87
2023/09/08 00:03:24;;;;;;;8.45;5.53;;;19.40;99.90;;;20.39;62.12;100752.28;6188703;23;20020;-86
2023/09/08 00:05:52;;;;;;;11.63;6.10;;;19.30;99.90;;;20.38;62.00;100756.09;6187850;23;20035;-87
2023/09/08 00:08:19;;;;;;;11.13;5.78;;;19.30;99.90;;;20.36;62.29;100753.66;6187668;23;20020;-87
2023/09/08 00:10:47;;;;;;;11.20;5.75;;;19.30;99.90;;;20.37;62.05;100751.75;6213787;23;20347;-87
2023/09/08 00:13:14;;;;;;;10.98;5.82;;;19.30;99.90;;;20.32;62.45;100747.16;6187976;23;20052;-87
2023/09/08 00:15:43;;;;;;;8.63;5.63;;;19.30;99.90;;;20.29;62.11;100742.25;6163170;23;20029;-87
2023/09/08 00:18:11;;;;;;;9.15;6.07;;;19.30;99.90;;;20.27;62.18;100745.25;6187879;23;20017;-87
2023/09/08 00:20:38;;;;;;;10.73;5.65;;;19.20;99.90;;;20.24;62.31;100747.66;6187444;23;20029;-89
2023/09/08 00:23:08;;;;;;;8.75;5.60;;;19.20;99.90;;;20.23;62.27;100752.28;6187951;23;20145;-89
2023/09/08 00:25:36;;;;;;;10.63;5.65;;;19.20;99.90;;;20.22;62.08;100752.56;6187692;23;20086;-89
2023/09/08 00:28:03;;;;;;;8.45;5.65;;;19.20;99.90;;;20.19;62.44;100744.94;6162524;23;20103;-89
2023/09/08 00:30:31;;;;;;;9.02;5.97;;;19.20;99.90;;;20.16;61.99;100757.16;6186811;23;20017;-89
2023/09/08 00:32:59;;;;;;;7.55;5.72;;;19.20;99.90;;;20.15;62.13;100752.78;6187225;23;20059;-89
2023/09/08 00:35:27;;;;;;;8.82;5.53;;;19.10;99.90;;;20.13;61.89;100748.75;6187475;23;20017;-87
2023/09/08 00:37:54;;;;;;;8.15;5.53;;;19.10;99.90;;;20.11;62.03;100748.22;6213656;23;20012;-87
2023/09/08 00:40:22;;;;;;;10.73;6.20;;;19.00;99.90;;;20.09;61.97;100743.03;6162526;23;20039;-87
2023/09/08 00:42:49;;;;;;;7.78;5.13;;;19.00;99.90;;;20.09;61.96;100747.66;6187775;23;20064;-87
2023/09/08 00:45:16;;;;;;;11.10;5.35;;;19.00;99.90;;;20.07;62.11;100742.50;6187928;23;20078;-87
2023/09/08 00:47:44;;;;;;;9.55;5.50;;;19.00;99.90;;;20.04;61.78;100737.63;6187465;23;20028;-87
2023/09/08 00:50:13;;;;;;;7.75;5.35;;;19.00;99.90;;;20.02;61.87;100740.59;6187100;23;20055;-87
2023/09/08 00:52:40;;;;;;;9.82;5.18;;;19.00;99.90;;;20.01;61.74;100741.69;6187319;23;20020;-87
2023/09/08 00:55:09;;;;;;;7.45;5.40;;;19.00;99.90;;;19.96;61.90;100738.97;6187270;23;20016;-87
2023/09/08 00:57:36;;;;;;;8.57;5.47;;;18.90;99.90;;;19.94;61.54;100735.69;6187597;23;20021;-87
2023/09/08 01:00:05;;;;;;;9.18;5.63;;;18.90;99.90;;;19.92;61.60;100739.75;6186431;23;20028;-86
2023/09/08 01:02:32;;;;;;;9.82;5.70;;;18.90;99.90;;;19.89;61.95;100741.09;6187663;23;20024;-87
2023/09/08 01:05:00;;;;;;;8.95;5.65;;;18.90;99.90;;;19.88;61.88;100735.97;6187441;23;20024;-86
2023/09/08 01:07:31;;;;;;;8.55;6.03;;;18.80;99.90;;;19.85;61.92;100747.31;6187213;23;20030;-86
2023/09/08 01:10:04;;;;;;;10.93;6.10;;;18.80;99.90;;;19.83;61.79;100736.75;6185392;23;20021;-87
2023/09/08 01:12:31;;;;;;;8.77;5.38;;;18.80;99.90;;;19.83;61.69;100736.75;6187531;23;20032;-87
2023/09/08 01:14:59;;;;;;;9.20;5.53;;;18.80;99.90;;;19.82;61.47;100732.44;6186958;23;20020;-86
2023/09/08 01:17:27;;;;;;;10.10;5.40;;;18.80;99.90;;;19.79;61.61;100733.75;6186282;23;20020;-86
2023/09/08 01:19:58;;;;;;;8.57;5.57;;;18.80;99.90;;;19.78;61.90;100737.56;6185899;23;20032;-87
2023/09/08 01:22:51;;;;;;;10.55;6.13;;;18.80;99.90;;;19.77;61.98;100735.13;6186993;23;20467;-87
2023/09/08 01:25:25;;;;;;;8.48;5.45;;;18.70;99.90;;;19.76;62.19;100734.31;6186768;23;20024;-87
2023/09/08 01:27:55;;;;;;;9.38;5.88;;;18.80;99.90;;;19.74;62.08;100727.53;6186077;23;20016;-87
2023/09/08 01:30:25;;;;;;;9.35;5.80;;;18.70;99.90;;;19.73;62.12;100728.59;6186228;23;20052;-86
2023/09/08 01:32:53;;;;;;;12.90;5.80;;;18.70;99.90;;;19.72;61.79;100724.28;6187174;23;20024;-87
2023/09/08 01:35:21;;;;;;;8.30;5.85;;;18.70;99.90;;;19.70;62.19;100729.94;6187275;23;20021;-86
2023/09/08 01:37:49;;;;;;;13.15;6.45;;;18.70;99.90;;;19.69;62.13;100730.22;6187180;23;20021;-86
2023/09/08 01:40:18;;;;;;;10.63;6.10;;;18.70;99.90;;;19.67;62.04;100730.47;6186216;23;20020;-87
2023/09/08 01:42:49;;;;;;;8.73;6.00;;;18.60;99.90;;;19.66;61.91;100723.41;6162408;23;20355;-86
2023/09/08 01:45:16;;;;;;;8.67;5.53;;;18.70;99.90;;;19.64;62.07;100728.28;6187122;23;20070;-87
2023/09/08 01:47:43;;;;;;;7.47;5.40;;;18.60;99.90;;;19.63;62.12;100721.25;6186890;23;20678;-87
2023/09/08 01:50:11;;;;;;;10.80;6.28;;;18.60;99.90;;;19.62;62.22;100726.91;6187034;23;20071;-87
2023/09/08 01:52:38;;;;;;;10.02;5.68;;;18.60;99.90;;;19.61;61.99;100725.28;6188971;23;20017;-87
2023/09/08 01:55:07;;;;;;;10.60;5.43;;;18.60;99.90;;;19.58;61.91;100723.91;6189229;23;20048;-87
2023/09/08 01:57:34;;;;;;;9.10;6.05;;;18.50;99.90;;;19.55;62.02;100719.84;6189137;23;20020;-87
2023/09/08 02:00:04;;;;;;;9.85;5.82;;;18.50;99.90;;;19.52;62.14;100714.97;6188371;23;20055;-87
2023/09/08 02:02:39;;;;;;;9.55;6.15;;;18.50;99.90;;;19.52;62.30;100716.84;6215625;23;20032;-86
2023/09/08 02:05:08;;;;;;;10.38;5.97;;;18.50;99.90;;;19.49;62.19;100711.97;6164561;23;20021;-87
2023/09/08 02:07:36;;;;;;;11.00;5.80;;;18.50;99.90;;;19.47;62.18;100714.13;6189280;23;20351;-87
2023/09/08 02:10:04;;;;;;;12.63;5.80;;;18.40;99.90;;;19.45;61.83;100713.56;6188315;23;20071;-86
2023/09/08 02:12:31;;;;;;;7.85;5.88;;;18.40;99.90;;;19.43;61.85;100719.25;6189326;23;20051;-86
2023/09/08 02:14:59;;;;;;;9.95;5.80;;;18.40;99.90;;;19.40;61.99;100719.78;6188704;23;20020;-87
2023/09/08 02:17:28;;;;;;;8.70;5.95;;;18.30;99.90;;;19.39;62.13;100712.75;6188732;23;20522;-87
2023/09/08 02:19:55;;;;;;;8.40;5.55;;;18.40;99.90;;;19.38;62.17;100713.03;6188167;23;20048;-87
2023/09/08 02:22:23;;;;;;;9.38;5.93;;;18.40;99.90;;;19.37;61.86;100720.28;6188857;23;20078;-87
2023/09/08 02:24:51;;;;;;;9.95;5.80;;;18.30;99.90;;;19.34;61.92;100718.13;6163724;23;20012;-87
2023/09/08 02:27:20;;;;;;;8.60;5.93;;;18.30;99.90;;;19.31;62.19;100713.25;6187836;23;20024;-87
2023/09/08 02:29:49;;;;;;;9.15;5.93;;;18.30;99.90;;;19.29;61.91;100715.41;6188054;23;20047;-87
2023/09/08 02:32:17;;;;;;;10.13;5.82;;;18.20;99.90;;;19.28;61.82;100716.50;6188190;23;20020;-87
2023/09/08 02:34:48;;;;;;;12.73;6.13;;;18.20;99.90;;;19.26;62.15;100721.31;6139653;23;20025;-87
2023/09/08 02:37:15;;;;;;;10.13;6.20;;;18.20;99.90;;;19.25;61.98;100719.72;6187931;23;20424;-87
2023/09/08 02:39:43;;;;;;;8.07;5.60;;;18.20;99.90;;;19.21;62.06;100719.41;6188528;23;20074;-87
2023/09/08 02:42:11;;;;;;;10.43;5.90;;;18.20;99.90;;;19.21;62.10;100716.69;6188581;23;20021;-87
2023/09/08 02:44:39;;;;;;;13.82;5.80;;;18.20;99.90;;;19.20;62.24;100714.28;6188896;23;20024;-87
2023/09/08 02:47:06;;;;;;;11.60;5.88;;;18.20;99.90;;;19.18;62.47;100716.41;6188953;23;20017;-87
2023/09/08 02:49:35;;;;;;;13.75;6.13;;;18.20;99.90;;;19.17;62.47;100715.59;6188481;23;20353;-87
2023/09/08 02:52:04;;;;;;;14.07;6.32;;;18.10;99.90;;;19.16;62.44;100718.56;6188714;23;20711;-87
2023/09/08 02:54:31;;;;;;;9.68;5.85;;;18.10;99.90;;;19.13;62.17;100721.78;6188878;23;20024;-87
2023/09/08 02:56:58;;;;;;;9.82;5.90;;;18.10;99.90;;;19.11;62.31;100721.25;6188892;23;20633;-87
2023/09/08 02:59:26;;;;;;;9.85;6.38;;;18.10;99.90;;;19.08;62.63;100724.47;6188203;23;20050;-87
2023/09/08 03:01:53;;;;;;;13.45;6.43;;;18.00;99.90;;;19.07;62.43;100725.53;6187042;23;20016;-87
2023/09/08 03:04:23;;;;;;;9.27;5.90;;;18.00;99.90;;;19.03;62.22;100715.28;6188394;23;20016;-87
2023/09/08 03:06:50;;;;;;;9.60;6.00;;;18.00;99.90;;;19.02;62.53;100716.31;6163817;23;20464;-87
2023/09/08 03:09:19;;;;;;;11.32;5.53;;;18.00;99.90;;;19.02;62.38;100718.22;6188027;23;20016;-87
2023/09/08 03:11:46;;;;;;;11.75;6.35;;;18.00;99.90;;;19.01;62.49;100713.88;6187691;23;20016;-87
2023/09/08 03:14:13;;;;;;;9.80;6.15;;;17.90;99.90;;;18.98;62.56;100711.69;6215050;23;20015;-87
2023/09/08 03:16:41;;;;;;;11.75;5.97;;;17.90;99.90;;;18.97;62.58;100721.69;6187331;23;20048;-87
2023/09/08 03:19:08;;;;;;;9.18;5.50;;;18.00;99.90;;;18.94;62.30;100708.72;6187813;23;20079;-87
2023/09/08 03:21:35;;;;;;;9.85;6.00;;;18.00;99.90;;;18.94;62.77;100708.72;6187581;23;20392;-87
2023/09/08 03:24:02;;;;;;;11.48;5.82;;;17.90;99.90;;;18.92;62.31;100713.56;6188361;23;20027;-87
2023/09/08 03:26:31;;;;;;;9.75;6.18;;;17.90;99.90;;;18.90;62.66;100710.31;6188091;23;20099;-87
2023/09/08 03:29:01;;;;;;;8.95;5.85;;;17.90;99.90;;;18.89;62.33;100713.28;6163848;23;20044;-87
2023/09/08 03:31:28;;;;;;;9.45;6.40;;;17.90;99.90;;;18.87;62.36;100705.41;6187637;23;20044;-87
2023/09/08 03:33:55;;;;;;;8.88;6.35;;;17.90;99.90;;;18.85;62.51;100698.66;6214743;23;20092;-87
2023/09/08 03:36:23;;;;;;;10.10;6.18;;;17.80;99.90;;;18.82;62.37;100699.16;6188271;23;20527;-87
2023/09/08 03:38:50;;;;;;;10.18;6.13;;;17.80;99.90;;;18.80;62.47;100694.03;6187657;23;20448;-87
2023/09/08 03:41:17;;;;;;;9.00;5.60;;;17.70;99.90;;;18.78;62.32;100702.38;6187550;23;20329;-87
2023/09/08 03:43:49;;;;;;;9.02;5.88;;;17.70;99.90;;;18.78;62.26;100699.69;6163212;23;20036;-87
2023/09/08 03:46:16;;;;;;;;;;;17.70;99.90;;;18.77;62.56;100694.53;6188773;23;20450;-87
2023/09/08 03:48:43;;;;;;;10.50;5.55;;;17.70;99.90;;;18.74;62.55;100690.50;6187799;23;19922;-87
2023/09/08 03:51:11;;;;;;;10.68;5.90;;;17.70;99.90;;;18.71;62.51;100693.69;6162256;23;20547;-87
2023/09/08 03:53:38;;;;;;;10.27;6.30;;;17.70;99.90;;;18.70;62.62;100683.16;6188273;23;20021;-87
2023/09/08 03:56:05;;;;;;;9.13;6.15;;;17.70;99.90;;;18.69;62.47;100689.63;6187443;23;20071;-87
2023/09/08 03:58:33;;;;;;;12.48;6.03;;;17.70;99.90;;;18.68;62.61;100688.81;6188353;23;20402;-87
2023/09/08 04:01:01;;;;;;;9.52;5.70;;;17.70;99.90;;;18.67;62.21;100694.44;6186402;23;20024;-87
2023/09/08 04:03:29;;;;;;;7.93;5.55;;;17.60;99.90;;;18.64;62.58;100692.25;6188442;23;20017;-87
2023/09/08 04:05:56;;;;;;;8.30;5.93;;;17.60;99.90;;;18.63;62.44;100690.63;6187807;23;20474;-87
2023/09/08 04:08:24;;;;;;;7.35;5.38;;;17.60;99.90;;;18.61;62.29;100695.50;6187891;23;20016;-87
2023/09/08 04:10:52;;;;;;;8.82;5.85;;;17.60;99.90;;;18.60;62.52;100694.69;6186203;23;20024;-87
2023/09/08 04:13:19;;;;;;;11.38;5.70;;;17.60;99.90;;;18.59;62.42;100692.22;6187891;23;20028;-87
2023/09/08 04:15:46;;;;;;;7.53;5.68;;;17.60;99.90;;;18.59;62.55;100692.22;6187114;23;20101;-86
2023/09/08 04:18:15;;;;;;;10.90;5.95;;;17.60;99.90;;;18.59;62.72;100694.91;6187917;23;20021;-89
2023/09/08 04:20:44;;;;;;;8.68;5.72;;;17.60;99.90;;;18.59;62.51;100700.31;6186768;23;20016;-87
2023/09/08 04:23:11;;;;;;;9.32;6.03;;;17.60;99.90;;;18.59;62.73;100692.22;6187155;23;20036;-87
2023/09/08 04:25:39;;;;;;;11.90;6.07;;;17.60;99.90;;;18.56;62.57;100690.84;6187806;23;20025;-88
2023/09/08 04:28:07;;;;;;;11.48;5.88;;;17.60;99.90;;;18.53;62.53;100684.06;6187687;23;20455;-89
2023/09/08 04:30:34;;;;;;;9.10;6.07;;;17.50;99.90;;;18.51;62.54;100698.91;6187085;23;20027;-89
2023/09/08 04:33:01;;;;;;;8.95;5.72;;;17.50;99.90;;;18.49;62.52;100685.66;6187622;23;20055;-90
2023/09/08 04:35:30;;;;;;;10.10;5.75;;;17.50;99.90;;;18.48;62.70;100694.84;6187284;23;20020;-89
2023/09/08 04:37:57;;;;;;;9.77;5.70;;;17.50;99.90;;;18.46;62.54;100697.00;6187625;23;20095;-89
2023/09/08 04:40:26;;;;;;;10.07;6.13;;;17.50;99.90;;;18.44;62.73;100701.81;6187893;23;20025;-89
2023/09/08 04:42:53;;;;;;;9.30;6.40;;;17.40;99.90;;;18.42;62.98;100697.75;6187975;23;20024;-89
2023/09/08 04:45:22;;;;;;;11.15;5.90;;;17.40;99.90;;;18.42;62.99;100693.19;6188310;23;20025;-90
2023/09/08 04:47:50;;;;;;;11.75;6.55;;;17.50;99.90;;;18.44;63.31;100690.22;6187815;23;20411;-91
2023/09/08 04:50:19;;;;;;;9.82;6.28;;;17.50;99.90;;;18.42;63.06;100695.88;6188014;23;20051;-90
2023/09/08 04:52:48;;;;;;;10.57;5.85;;;17.50;99.90;;;18.40;63.31;100689.94;6188427;23;20047;-91
2023/09/08 04:55:20;;;;;;;9.55;6.38;;;17.40;99.90;;;18.39;63.23;100690.97;6189042;23;20027;-90
2023/09/08 04:57:48;;;;;;;11.18;6.05;;;17.40;99.90;;;18.36;63.17;100698.81;6189368;23;20020;-90
2023/09/08 05:00:17;;;;;;;9.85;6.10;;;17.40;99.90;;;18.36;63.34;100693.41;6189057;23;20114;-90
2023/09/08 05:02:46;;;;;;;12.52;6.40;;;17.40;99.90;;;18.34;63.12;100700.94;6187474;23;20410;-90
2023/09/08 05:05:13;;;;;;;11.30;5.80;;;17.40;99.90;;;18.32;63.16;100703.91;6187279;23;20050;-90
2023/09/08 05:07:40;;;;;;;8.05;5.72;;;17.40;99.90;;;18.31;63.24;100704.97;6186636;23;20028;-90
2023/09/08 05:10:11;;;;;;;9.32;6.30;;;17.30;99.90;;;18.28;63.34;100702.78;6184826;23;20024;-90
2023/09/08 05:12:40;;;;;;;9.93;5.75;;;17.30;99.90;;;18.28;63.45;100698.19;6186517;23;20692;-89
2023/09/08 05:15:15;;;;;;;11.82;6.40;;;17.30;99.90;;;18.28;63.68;100698.19;6186624;23;20023;-89
2023/09/08 05:17:46;;;;;;;10.85;6.40;;;17.30;99.90;;;18.31;63.66;100698.75;6187867;23;20021;-90
2023/09/08 05:20:26;;;;;;;9.90;6.35;;;17.40;99.90;;;18.32;63.89;100701.19;6186358;23;20021;-89
2023/09/08 05:22:54;;;;;;;9.70;6.05;;;17.40;99.90;;;18.31;63.90;100696.06;6186653;23;20510;-90
2023/09/08 05:25:23;;;;;;;9.30;6.28;;;17.40;99.90;;;18.30;63.77;100692.56;6186226;23;20396;-88
2023/09/08 05:27:52;;;;;;;10.40;6.03;;;17.40;99.90;;;18.31;64.22;100694.16;6187182;23;20024;-87
2023/09/08 05:30:20;;;;;;;8.65;5.93;;;17.40;99.90;;;18.32;64.26;100695.78;6185189;23;20056;-88
2023/09/08 05:32:50;;;;;;;12.43;6.18;;;17.40;99.90;;;18.33;64.51;100697.41;6187365;23;20021;-89
2023/09/08 05:35:18;;;;;;;10.05;6.50;;;17.40;99.90;;;18.33;64.55;100685.81;6186416;23;20039;-88
2023/09/08 05:37:45;;;;;;;8.93;6.18;;;17.40;99.90;;;18.30;64.81;100684.44;6187212;23;20027;-89
2023/09/08 05:40:13;;;;;;;9.00;5.80;;;17.40;99.90;;;18.31;64.79;100696.06;6186129;23;20676;-89
2023/09/08 05:42:43;;;;;;;9.38;5.85;;;17.40;99.90;;;18.33;65.19;100683.91;6187360;23;20031;-89
2023/09/08 05:45:11;;;;;;;9.32;5.95;;;17.50;99.90;;;18.38;65.51;100691.25;6187250;23;20024;-90
2023/09/08 05:47:39;;;;;;;10.60;6.35;;;17.50;99.90;;;18.41;65.64;100690.75;6186745;23;20017;-89
2023/09/08 05:50:07;;;;;;;10.35;6.30;;;17.60;99.90;;;18.45;65.71;100697.25;6185814;23;20468;-89
2023/09/08 05:52:35;;;;;;;13.60;6.65;;;17.60;99.90;;;18.45;65.71;100695.38;6186948;23;20091;-88
2023/09/08 05:55:02;;;;;;;9.52;6.03;;;17.60;99.90;;;18.45;66.19;100699.97;6161033;23;20028;-88
2023/09/08 05:57:30;;;;;;;11.50;6.03;;;17.70;99.90;;;18.48;66.04;100700.25;6187412;23;20016;-88
2023/09/08 05:59:59;;;;;;;9.73;6.53;;;17.70;99.90;;;18.50;66.29;100698.13;6185528;23;20355;-88
2023/09/08 06:02:27;;;;;;;14.40;6.90;;;17.70;99.90;;;18.55;66.74;100696.53;6184944;23;20029;-88
2023/09/08 06:04:55;;;;;;;10.25;6.53;;;17.80;99.90;;;18.59;66.81;100694.91;6162444;23;20020;-89
2023/09/08 06:07:25;;;;;;;9.82;6.18;;;17.80;99.90;;;18.61;67.21;100692.78;6187133;23;20024;-88
2023/09/08 06:27:28;;;;;;;12.07;6.47;;;18.40;99.90;;;18.86;68.01;100709.19;6231043;22;20146;-83
2023/09/08 06:29:56;;;;;;;13.30;7.43;;;18.50;99.90;;;18.93;68.00;100701.66;6211058;23;20054;-83
2023/09/08 06:32:24;;;;;;;13.25;7.60;;;18.60;99.90;;;19.03;67.89;100704.47;6186313;23;20028;-83
2023/09/08 06:34:51;;;;;;;13.52;7.03;;;18.70;99.90;;;19.14;68.19;100707.22;6186209;23;20099;-83
2023/09/08 06:37:19;;;;;;;13.75;7.43;;;18.80;99.90;;;19.22;67.63;100707.50;6188569;23;20116;-82
2023/09/08 06:39:46;;;;;;;15.30;7.00;;;19.00;99.90;;;19.31;67.24;100707.81;6187313;23;20020;-83
2023/09/08 06:42:14;;;;;;;11.48;6.97;;;19.00;99.90;;;19.41;67.03;100704.34;6188700;23;20371;-83
2023/09/08 06:44:51;;;;;;;11.77;6.70;;;19.10;99.90;;;19.47;66.82;100703.28;6188948;23;20673;-82
2023/09/08 06:47:18;;;;;;;11.70;7.03;;;19.20;99.90;;;19.55;66.57;100706.31;6189833;23;20340;-83
2023/09/08 06:49:46;;;;;;;11.00;6.70;;;19.30;99.90;;;19.67;67.13;100705.31;6214537;23;20025;-83
2023/09/08 06:52:14;;;;;;;14.02;7.13;;;19.40;99.90;;;19.76;67.27;100706.41;6167413;23;20021;-83
2023/09/08 06:54:42;;;;;;;12.05;6.75;;;19.60;99.90;;;19.85;66.70;100710.22;6191500;23;20035;-83
2023/09/08 06:57:09;;;;;;;13.63;6.68;;;19.60;99.90;;;19.94;67.04;100705.09;6215884;23;20017;-83
2023/09/08 06:59:36;;;;;;;10.77;6.97;;;19.70;99.90;;;20.03;66.52;100700.78;6189198;23;20027;-82
2023/09/08 07:02:05;;;;;;;14.50;6.68;;;19.80;99.90;;;20.13;66.07;100706.22;6214925;23;20020;-83
2023/09/08 07:04:32;;;;;;;10.80;6.38;;;19.90;99.90;;;20.20;66.15;100700.53;6214599;23;20099;-82
2023/09/08 07:07:06;;;;;;;10.98;6.65;;;20.00;99.90;;;20.27;66.11;100714.63;6187867;23;20036;-82
2023/09/08 07:09:35;;;;;;;10.55;6.13;;;20.10;99.90;;;20.36;66.02;100706.78;6187471;23;20028;-82
2023/09/08 07:12:04;;;;;;;11.35;6.70;;;20.20;99.90;;;20.45;65.38;100705.19;6161647;23;20024;-82
2023/09/08 07:14:32;;;;;;;11.15;6.47;;;20.30;99.90;;;20.51;65.31;100706.81;6215837;23;20074;-82
2023/09/08 07:16:59;;;;;;;9.68;6.32;;;20.40;99.90;;;20.60;65.19;100709.81;6187495;23;20025;-82
2023/09/08 07:19:29;;;;;;;10.85;5.97;;;20.50;99.90;;;20.71;65.30;100701.38;6187443;23;20116;-82
2023/09/08 07:21:57;;;;;;;13.55;6.78;;;20.60;99.90;;;20.79;65.30;100705.44;6187307;23;20139;-82
2023/09/08 07:24:24;;;;;;;13.93;6.50;;;20.70;99.90;;;20.89;65.32;100697.31;6187934;23;20024;-82
2023/09/08 07:26:51;;;;;;;14.52;6.15;;;20.80;99.90;;;20.97;65.38;100699.44;6187299;23;20020;-82
2023/09/08 07:29:19;;;;;;;10.48;6.18;;;21.00;99.90;;;21.05;65.26;100698.88;6187222;23;20078;-82
2023/09/08 07:31:46;;;;;;;12.23;6.13;;;21.10;99.90;;;21.14;64.70;100703.75;6186754;23;20056;-82
2023/09/08 07:34:13;;;;;;;12.77;6.25;;;21.20;99.90;;;21.23;64.50;100700.19;6188045;23;20020;-82
2023/09/08 07:36:42;;;;;;;13.82;5.97;;;21.30;99.90;;;21.39;65.30;100705.59;6187702;23;20055;-81
2023/09/08 07:39:09;;;;;;;11.20;6.30;;;21.40;99.90;;;21.51;64.50;100709.59;6187249;23;20024;-82
2023/09/08 07:41:39;;;;;;;11.15;5.78;;;21.60;99.90;;;21.59;63.83;100713.66;6186958;23;20458;-81
2023/09/08 07:44:07;;;;;;;15.57;6.00;;;21.70;99.90;;;21.69;63.52;100715.50;6213952;23;20455;-82
2023/09/08 07:46:34;;;;;;;15.32;6.28;;;21.80;99.90;;;21.80;63.85;100711.63;6187326;23;20032;-82
2023/09/08 07:49:02;;;;;;;8.35;5.30;;;21.90;99.90;;;21.88;62.75;100708.34;6214255;23;20023;-82
2023/09/08 07:51:29;;;;;;;9.77;5.40;;;22.00;99.90;;;22.00;63.84;100707.97;6187046;23;20024;-82
2023/09/08 07:53:58;;;;;;;11.45;5.63;;;22.10;99.90;;;22.09;62.25;100698.94;6214731;23;20116;-82
2023/09/08 07:56:25;;;;;;;10.65;5.65;;;22.20;99.90;;;22.19;61.73;100703.53;6162422;23;20020;-83
2023/09/08 07:58:52;;;;;;;14.85;5.78;;;22.40;99.90;;;22.31;61.21;100708.63;6112552;23;20025;-82
2023/09/08 08:01:20;;;;;;;12.52;5.53;;;22.50;99.90;;;22.40;61.37;100706.09;6213266;23;20103;-82
2023/09/08 08:03:47;;;;;;;9.57;5.50;;;22.60;99.90;;;22.50;61.83;100706.03;6215105;23;20079;-85
2023/09/08 08:06:14;;;;;;;10.57;5.47;;;22.70;99.90;;;22.62;61.30;100706.44;6217952;23;20016;-85
2023/09/08 08:08:42;;;;;;;9.90;5.40;;;22.90;99.90;;;22.77;60.99;100713.66;6218307;23;20024;-85
2023/09/08 08:11:17;;;;;;;9.13;5.50;;;23.00;99.90;;;22.87;62.69;100708.13;6217130;23;20020;-85
2023/09/08 08:13:44;;;;;;;10.32;5.60;;;23.10;99.90;;;22.88;60.01;100707.00;6218413;23;20040;-84
2023/09/08 08:16:12;;;;;;;9.07;5.35;;;23.10;99.90;;;22.91;60.64;100703.75;6218147;23;20020;-84
2023/09/08 08:18:39;;;;;;;10.30;5.60;;;23.20;99.90;;;23.04;61.06;100705.81;6219107;23;20021;-84
2023/09/08 08:21:06;;;;;;;12.20;5.82;;;23.30;99.90;;;23.18;64.32;100705.09;6217386;23;20021;-85
2023/09/08 08:23:35;;;;;;;9.30;5.57;;;23.50;99.90;;;23.24;63.93;100701.22;6215986;23;20024;-85
2023/09/08 08:26:02;;;;;;;10.68;5.60;;;23.60;99.90;;;23.37;63.29;100700.50;6217153;23;20021;-84
2023/09/08 08:28:31;;;;;;;8.35;5.15;;;23.70;99.90;;;23.46;58.18;100704.22;6190865;23;20051;-85
2023/09/08 08:30:58;;;;;;;8.27;4.75;;;23.80;99.60;;;23.58;58.36;100699.16;6188203;23;20059;-86
2023/09/08 08:33:26;;;;;;;8.70;4.90;;;23.90;99.70;;;23.69;56.69;100701.78;6215300;23;20017;-85
2023/09/08 08:35:54;;;;;;;10.20;5.05;;;24.00;97.80;;;23.78;54.89;100695.38;6215736;23;20020;-85
2023/09/08 08:38:22;;;;;;;8.68;5.03;;;24.10;95.50;;;23.84;55.95;100696.94;6216001;23;20021;-85
2023/09/08 08:40:49;;;;;;;11.13;4.82;;;24.20;96.60;;;23.95;52.84;100697.59;6189818;23;20333;-85
2023/09/08 08:43:16;;;;;;;9.50;5.10;;;24.30;93.80;;;24.04;54.98;100700.47;6190189;23;20484;-85
2023/09/08 08:45:47;;;;;;;9.13;4.68;;;24.40;95.40;;;24.09;52.75;100703.09;6216777;23;20502;-85
2023/09/08 08:48:15;;;;;;;13.27;4.65;;;24.40;92.50;;;24.14;54.44;100698.38;6217178;23;20082;-86
2023/09/08 08:50:44;;;;;;;8.40;4.65;;;24.50;94.30;;;24.30;51.83;100706.31;6216150;23;20012;-85
2023/09/08 08:53:12;;;;;;;6.40;4.55;;;24.70;91.80;;;24.29;52.53;100694.59;6189836;23;20452;-85
2023/09/08 08:55:40;;;;;;;9.10;4.55;;;24.70;91.60;;;24.33;52.69;100705.72;6216617;23;20439;-86
2023/09/08 08:58:08;;;;;;;10.10;4.50;;;24.70;92.20;;;24.38;51.67;100698.31;6189438;23;20016;-85
2023/09/08 09:00:37;;;;;;;7.70;4.85;;;24.70;91.10;;;24.36;50.76;100703.25;6188061;23;20024;-85
2023/09/08 09:03:08;;;;;;;7.90;4.30;;;24.70;89.50;;;24.38;50.90;100694.78;6216349;23;20070;-85
2023/09/08 09:05:37;;;;;;;7.68;4.22;;;24.70;90.00;;;24.43;51.21;100704.78;6190053;23;20074;-86
2023/09/08 09:08:07;;;;;;;9.30;4.50;;;24.80;89.60;;;24.50;50.62;100700.59;6190454;23;20035;-85
2023/09/08 09:10:34;;;;;;;7.03;4.35;;;24.80;89.30;;;24.62;50.21;100702.81;6188904;23;20609;-86
2023/09/08 09:13:02;;;;;;;7.93;4.18;;;24.90;88.60;;;24.65;48.56;100705.75;6189585;23;20065;-85
2023/09/08 09:15:32;;;;;;;6.57;4.00;;;25.00;86.90;;;24.73;49.99;100696.06;6216491;23;20466;-86
2023/09/08 09:18:08;;;;;;;9.25;4.28;;;25.10;88.20;;;24.69;49.52;100703.22;6216074;23;20017;-86
2023/09/08 09:20:36;;;;;;;10.43;4.63;;;25.10;88.00;;;24.70;49.72;100699.41;6189148;23;20048;-85
2023/09/08 09:23:03;;;;;;;6.60;4.28;;;25.10;87.60;;;24.82;49.77;100704.38;6216406;23;20403;-86
2023/09/08 09:25:32;;;;;;;7.10;4.50;;;25.10;87.70;;;24.76;49.48;100692.75;6189613;23;20028;-86
2023/09/08 09:28:02;;;;;;;9.32;4.22;;;25.20;87.00;;;24.71;50.92;100701.03;6216213;23;20364;-85
2023/09/08 09:30:47;;;;;;;6.75;4.05;;;25.10;88.80;;;24.79;50.94;100696.78;6216058;23;20084;-86
2023/09/08 09:33:16;;;;;;;8.30;3.88;;;25.10;89.30;;;24.83;50.14;100695.06;6190245;23;20077;-86
2023/09/08 09:35:45;;;;;;;6.20;4.00;;;25.20;88.10;;;24.82;49.85;100690.72;6189433;23;20478;-85
2023/09/08 09:38:14;;;;;;;6.90;4.10;;;25.20;87.40;;;24.89;49.51;100685.69;6216360;23;20340;-85
2023/09/08 09:40:41;;;;;;;9.32;4.45;;;25.30;87.00;;;24.95;51.67;100686.41;6188025;23;20031;-86
2023/09/08 09:43:11;;;;;;;9.13;4.78;;;25.30;89.30;;;25.04;51.22;100690.88;6215860;23;20360;-85
2023/09/08 09:45:40;;;;;;;7.80;4.38;;;25.40;89.10;;;24.99;49.72;100682.78;6216108;23;20027;-85
2023/09/08 09:48:09;;;;;;;9.68;4.30;;;25.40;87.10;;;25.04;48.76;100682.69;6215962;23;20020;-85
2023/09/08 09:50:40;;;;;;;8.88;4.38;;;25.40;85.70;;;25.03;50.80;100685.69;6215475;23;20055;-85
2023/09/08 09:53:11;;;;;;;9.50;4.32;;;25.40;87.90;;;25.08;48.95;100689.16;6189988;23;20078;-85
2023/09/08 09:55:40;;;;;;;8.35;4.53;;;25.50;85.60;;;25.16;49.98;100683.00;6216063;23;20024;-85
2023/09/08 09:58:10;;;;;;;6.90;4.40;;;25.50;87.00;;;25.16;51.40;100684.91;6215701;23;20012;-86
2023/09/08 10:00:39;;;;;;;8.35;4.20;;;25.60;88.50;;;25.12;48.23;100689.38;6189433;23;20047;-85
2023/09/08 10:03:11;;;;;;;7.90;4.57;;;25.50;84.80;;;25.09;48.73;100685.34;6189666;23;20512;-88
2023/09/08 10:05:40;;;;;;;9.32;4.05;;;25.50;85.20;;;25.07;49.25;100698.47;6214209;23;20440;-86
2023/09/08 10:08:07;;;;;;;7.65;4.55;;;25.40;86.10;;;25.09;50.40;100690.78;6214013;23;20083;-85
2023/09/08 10:10:35;;;;;;;7.88;4.25;;;25.40;87.30;;;25.15;50.14;100688.78;6213997;23;20455;-86
2023/09/08 10:13:06;;;;;;;7.93;4.50;;;25.50;87.30;;;25.17;50.83;100687.34;6190027;23;20020;-86
2023/09/08 10:15:34;;;;;;;7.13;4.43;;;25.50;87.70;;;25.26;49.36;100683.91;6216178;23;20017;-86
2023/09/08 10:18:06;;;;;;;7.38;4.35;;;25.60;85.70;;;25.18;47.68;100685.41;6188958;23;20040;-86
2023/09/08 10:20:35;;;;;;;7.85;4.32;;;25.50;84.10;;;25.35;48.24;100688.34;6188577;23;20051;-86
2023/09/08 10:23:13;;;;;;;10.18;4.13;;;25.70;84.90;;;25.38;48.47;100686.94;6188958;23;20067;-86
2023/09/08 10:25:45;;;;;;;6.53;4.30;;;25.70;85.00;;;25.30;48.40;100691.19;6216075;23;20013;-86
2023/09/08 10:28:14;;;;;;;7.38;4.82;;;25.70;84.90;;;25.41;49.25;100694.50;6188975;23;20383;-86
2023/09/08 10:30:42;;;;;;;8.43;4.53;;;25.80;85.60;;;25.42;47.30;100694.19;6214930;23;20043;-86
2023/09/08 10:33:11;;;;;;;8.98;3.90;;;25.80;83.70;;;25.42;47.85;100682.47;6189142;23;20029;-86